Lytton, British Columbia

8:44 AM PDT on September 16, 2014 (GMT -0700)
Lytton | Change Station
CLOSE
Current Station
Airport
Location: Lytton,
Elevation: 751 ft
Nearby Weather Stations

Elev 751 ft 50.22 °N, 121.58 °W | Updated 44 minutes ago

Clear
Clear
46 °F
Feels Like 45 °F
N
4
Wind Variable Wind from South

Today is forecast to be nearly the same temperature as yesterday.

Today
High -- | Low -- °F
--% Chance of Precip.
Yesterday
High -- | Low -- °F
Precip. -- in
6:43 AM 7:17 PM
Last Quarter, 44% visible
Pressure 29.95 in
Visibility 9.0 miles
Clouds Clear
Windchill 45 °F
Dew Point 41 °F
Humidity 81%
Rainfall 0.00 in
Snow Depth Not available.
UV 1 out of 12
Pollen Not available.
Air Quality Not available.
Flu Activity Not available.
METAR CWLY 161500Z AUTO 18003KT 130V200 9SM CLR 08/05 A2995 RMK SLP141

More Conditions Fewer Conditions

Pressure 29.95 in
Visibility 9.0 miles
Clouds Clear
Windchill 45 °F
Dew Point 41 °F
Humidity 81%
Rainfall 0.00 in
Snow Depth Not available.
UV 1 out of 12
Pollen Not available.
Air Quality Not available.
Flu Activity Not available.
METAR CWLY 161500Z AUTO 18003KT 130V200 9SM CLR 08/05 A2995 RMK SLP141

More Conditions Fewer Conditions

10-Day Weather Forecast

Almanac

Astronomy

Sep. 16, 2014 Rise Set
Actual Time 6:43 AM PDT 7:17 PM PDT
Civil Twilight 6:11 AM PDT 7:50 PM PDT
Nautical Twilight 5:32 AM PDT 8:28 PM PDT
Astronomical Twilight 4:51 AM PDT 9:09 PM PDT
Moon No Moon Rise 3:11 PM PDT
Length of Visible Light 13h 38m
Length of Day
12h 33m
Tomorrow will be 3m 44s shorter.
Last Quarter, 44% of the Moon is Illuminated
Today
Last Quarter
Sep 24
New
Oct 1
First Quarter
Oct 8
Full
Oct 15
Last Quarter

Today's Extremes

Country Highs Country Lows

Community

WunderPhotos

Upload Photos

1,753,813 photos uploaded!

Nearby

Snow Depth

Not available.

Earthquake Activity

City Distance Mag. Time & Date
No recent earthquake activity has been reported nearby.
Minimum magnitude displayed is 2.5.

Coastal Water Temperatures

Place Temperature
No Stations Reporting

Nearby Weather Stations